createdAt,value
2019-03-25T00:01:02.603Z,7.88
2019-03-25T00:03:34.604Z,7.81
2019-03-25T00:06:06.475Z,7.68
2019-03-25T00:08:38.686Z,7.71
2019-03-25T00:11:11.963Z,7.63
2019-03-25T00:13:43.937Z,7.56
2019-03-25T00:16:16.340Z,7.55
2019-03-25T00:18:48.226Z,7.49
2019-03-25T00:21:21.327Z,7.51
2019-03-25T00:23:53.484Z,7.48
2019-03-25T00:26:25.627Z,7.44
2019-03-25T00:28:57.631Z,7.39
2019-03-25T00:31:29.846Z,7.17
2019-03-25T00:34:01.841Z,7.07
2019-03-25T00:36:34.071Z,6.97
2019-03-25T00:39:07.225Z,6.93
2019-03-25T00:41:39.208Z,6.84
2019-03-25T00:44:11.332Z,6.81
2019-03-25T00:46:43.272Z,6.88
2019-03-25T00:49:15.073Z,6.77
2019-03-25T00:51:47.286Z,6.69
2019-03-25T00:54:19.059Z,6.80
2019-03-25T00:56:51.179Z,6.78
2019-03-25T00:59:23.211Z,6.79
2019-03-25T01:01:55.014Z,6.84
2019-03-25T01:04:26.766Z,6.88
2019-03-25T01:06:58.665Z,6.93
2019-03-25T01:09:30.453Z,7.02
2019-03-25T01:12:02.586Z,7.06
2019-03-25T01:14:34.597Z,6.93
2019-03-25T01:17:06.778Z,6.97
2019-03-25T01:19:38.612Z,7.06
2019-03-25T01:22:10.847Z,7.14
2019-03-25T01:24:42.656Z,7.04
2019-03-25T01:27:14.640Z,6.84
2019-03-25T01:29:46.780Z,6.72
2019-03-25T01:32:18.855Z,6.55
2019-03-25T01:34:50.735Z,6.41
2019-03-25T01:37:22.896Z,6.40
2019-03-25T01:39:55.008Z,6.40
2019-03-25T01:42:27.071Z,6.28
2019-03-25T01:44:59.243Z,6.33
2019-03-25T01:47:31.412Z,6.33
2019-03-25T01:50:03.580Z,6.30
2019-03-25T01:52:35.729Z,6.28
2019-03-25T01:55:13.348Z,6.30
2019-03-25T01:57:41.783Z,6.32
2019-03-25T02:00:14.242Z,6.31
2019-03-25T02:02:46.472Z,6.30
2019-03-25T02:05:18.468Z,6.28
2019-03-25T02:07:50.393Z,6.32
2019-03-25T02:10:22.302Z,6.30
2019-03-25T02:12:54.411Z,6.30
2019-03-25T02:15:26.555Z,6.26
2019-03-25T02:17:59.049Z,6.29
2019-03-25T02:20:31.218Z,6.27
2019-03-25T02:23:03.332Z,6.29
2019-03-25T02:25:35.579Z,6.15
2019-03-25T02:28:07.782Z,6.14
2019-03-25T02:30:39.830Z,6.04
2019-03-25T02:33:11.966Z,5.96
2019-03-25T02:35:44.154Z,5.95
2019-03-25T02:38:16.242Z,6.00
2019-03-25T02:40:48.284Z,5.93
2019-03-25T02:43:20.486Z,5.91
2019-03-25T02:45:52.842Z,5.83
2019-03-25T02:48:24.713Z,5.62
2019-03-25T02:50:56.729Z,5.55
2019-03-25T02:53:28.578Z,5.32
2019-03-25T02:56:00.421Z,5.25
2019-03-25T02:58:32.602Z,5.19
2019-03-25T03:01:04.868Z,5.10
2019-03-25T03:03:36.894Z,5.07
2019-03-25T03:06:08.844Z,5.08
2019-03-25T03:08:40.926Z,5.11
2019-03-25T03:11:12.898Z,5.13
2019-03-25T03:13:45.002Z,5.13
2019-03-25T03:16:16.957Z,5.20
2019-03-25T03:18:48.889Z,5.08
2019-03-25T03:21:20.891Z,5.14
2019-03-25T03:23:53.060Z,5.19
2019-03-25T03:26:25.268Z,5.20
2019-03-25T03:28:57.234Z,5.22
2019-03-25T03:31:29.181Z,5.26
2019-03-25T03:34:01.418Z,5.31
2019-03-25T03:36:33.505Z,5.31
2019-03-25T03:39:06.349Z,5.28
2019-03-25T03:41:38.510Z,5.17
2019-03-25T03:44:10.620Z,5.15
2019-03-25T03:46:42.782Z,5.08
2019-03-25T03:49:14.921Z,4.98
2019-03-25T03:51:47.409Z,5.02
2019-03-25T03:54:19.898Z,4.89
2019-03-25T03:56:53.897Z,4.79
2019-03-25T03:59:26.283Z,4.56
2019-03-25T04:01:58.211Z,4.64
2019-03-25T04:04:29.979Z,4.74
2019-03-25T04:07:01.975Z,4.84
2019-03-25T04:09:34.125Z,4.85
2019-03-25T04:12:06.164Z,4.77
2019-03-25T04:14:38.364Z,4.79
2019-03-25T04:17:10.295Z,4.73
2019-03-25T04:19:42.238Z,4.75
2019-03-25T04:22:14.071Z,4.66
2019-03-25T04:24:46.181Z,4.67
2019-03-25T04:27:18.412Z,4.62
2019-03-25T04:29:50.449Z,4.61
2019-03-25T04:32:22.710Z,4.63
2019-03-25T04:34:54.502Z,4.65
2019-03-25T04:37:26.609Z,4.46
2019-03-25T04:39:58.375Z,4.43
2019-03-25T04:42:30.448Z,4.42
2019-03-25T04:45:02.426Z,4.48
2019-03-25T04:47:34.314Z,4.48
2019-03-25T04:50:06.384Z,4.43
2019-03-25T04:52:38.504Z,4.42
2019-03-25T04:55:10.430Z,4.51
2019-03-25T04:57:42.453Z,4.63
2019-03-25T05:00:14.747Z,4.63
2019-03-25T05:02:46.609Z,4.68
2019-03-25T05:05:18.755Z,4.88
2019-03-25T05:07:50.781Z,4.95
2019-03-25T05:10:22.827Z,5.02
2019-03-25T05:12:54.975Z,4.96
2019-03-25T05:15:27.111Z,4.95
2019-03-25T05:17:59.198Z,5.11
2019-03-25T05:20:31.331Z,5.44
2019-03-25T05:23:03.548Z,5.69
2019-03-25T05:25:35.580Z,5.93
2019-03-25T05:28:07.438Z,6.23
2019-03-25T05:30:39.505Z,6.60
2019-03-25T05:33:11.622Z,7.06
2019-03-25T05:35:43.608Z,7.42
2019-03-25T05:38:15.871Z,7.71
2019-03-25T05:40:47.977Z,8.30
2019-03-25T05:43:21.262Z,8.40
2019-03-25T05:45:54.450Z,8.51
2019-03-25T05:48:26.248Z,8.81
2019-03-25T05:50:58.076Z,9.25
2019-03-25T05:53:30.305Z,9.85
2019-03-25T05:56:02.395Z,10.22
2019-03-25T05:58:34.579Z,10.55
2019-03-25T06:01:06.796Z,10.37
2019-03-25T06:03:38.951Z,10.71
2019-03-25T06:06:11.081Z,10.53
2019-03-25T06:08:43.214Z,9.73
2019-03-25T06:11:15.542Z,9.56
2019-03-25T06:13:47.732Z,9.54
2019-03-25T06:16:19.697Z,9.62
2019-03-25T06:18:51.681Z,9.82
2019-03-25T06:21:23.694Z,10.08
2019-03-25T06:23:55.868Z,11.18
2019-03-25T06:26:27.848Z,11.81
2019-03-25T06:28:59.990Z,12.16
2019-03-25T06:31:32.248Z,12.22
2019-03-25T06:34:04.354Z,11.42
2019-03-25T06:36:36.314Z,11.53
2019-03-25T06:39:08.404Z,11.37
2019-03-25T06:41:40.491Z,11.37
2019-03-25T06:44:12.471Z,11.39
2019-03-25T06:46:44.539Z,11.54
2019-03-25T06:49:16.665Z,11.93
2019-03-25T06:51:48.639Z,11.90
2019-03-25T06:54:20.621Z,11.69
2019-03-25T06:56:52.899Z,11.52
2019-03-25T06:59:24.832Z,11.79
2019-03-25T07:01:56.833Z,12.10
2019-03-25T07:04:28.987Z,12.07
2019-03-25T07:07:00.939Z,12.17
2019-03-25T07:09:32.824Z,12.36
2019-03-25T07:12:06.261Z,12.52
2019-03-25T07:14:38.286Z,13.14
2019-03-25T07:17:10.042Z,13.07
2019-03-25T07:19:41.694Z,13.14
2019-03-25T07:22:13.172Z,12.96
2019-03-25T07:24:44.901Z,12.97
2019-03-25T07:27:17.410Z,12.63
2019-03-25T07:29:49.195Z,12.98
2019-03-25T07:32:21.042Z,12.89
2019-03-25T07:34:52.653Z,13.24
2019-03-25T07:37:25.324Z,13.34
2019-03-25T07:39:57.242Z,13.63
2019-03-25T07:42:29.183Z,13.58
2019-03-25T07:45:01.045Z,13.85
2019-03-25T07:47:32.899Z,14.34
2019-03-25T07:50:04.935Z,14.67
2019-03-25T07:52:36.875Z,14.85
2019-03-25T07:55:08.739Z,14.92
2019-03-25T07:57:48.085Z,14.74
2019-03-25T08:00:16.278Z,14.98
2019-03-25T08:02:48.444Z,15.16
2019-03-25T08:05:20.461Z,14.87
2019-03-25T08:07:52.336Z,15.06
2019-03-25T08:10:37.637Z,15.24
2019-03-25T08:13:09.611Z,15.67
2019-03-25T08:15:41.356Z,15.27
2019-03-25T08:18:13.391Z,15.65
2019-03-25T08:20:45.324Z,15.50
2019-03-25T08:23:17.078Z,15.50
2019-03-25T08:25:48.882Z,15.60
2019-03-25T08:28:20.918Z,15.90
2019-03-25T08:30:52.703Z,15.90
2019-03-25T08:33:24.435Z,16.16
2019-03-25T08:35:56.098Z,16.31
2019-03-25T08:38:27.582Z,16.37
2019-03-25T08:40:59.356Z,16.37
2019-03-25T08:43:31.241Z,16.61
2019-03-25T08:46:03.006Z,16.61
2019-03-25T08:48:34.764Z,17.11
2019-03-25T08:51:06.577Z,17.43
2019-03-25T08:53:38.240Z,17.43
2019-03-25T08:56:10.183Z,17.43
2019-03-25T08:58:42.014Z,17.95
2019-03-25T09:01:13.803Z,17.95
2019-03-25T09:03:45.829Z,17.94
2019-03-25T09:06:17.764Z,18.31
2019-03-25T09:08:49.283Z,18.46
2019-03-25T09:11:21.426Z,18.19
2019-03-25T09:13:53.285Z,18.07
2019-03-25T09:16:25.075Z,18.33
2019-03-25T09:18:56.623Z,18.13
2019-03-25T09:21:28.439Z,18.85
2019-03-25T09:24:00.438Z,18.61
2019-03-25T09:26:32.373Z,18.54
2019-03-25T09:29:04.232Z,18.66
2019-03-25T09:31:37.121Z,18.64
2019-03-25T09:34:08.790Z,18.49
2019-03-25T09:36:40.333Z,18.78
2019-03-25T09:39:11.989Z,19.19
2019-03-25T09:41:43.668Z,19.52
2019-03-25T09:44:16.542Z,19.77
2019-03-25T09:46:48.487Z,19.97
2019-03-25T09:49:20.467Z,20.17
2019-03-25T09:51:53.013Z,20.08
2019-03-25T09:54:24.990Z,19.79
2019-03-25T09:56:57.231Z,20.04
2019-03-25T09:59:29.016Z,20.38
2019-03-25T10:02:00.944Z,20.34
2019-03-25T10:04:32.796Z,20.19
2019-03-25T10:07:04.751Z,20.56
2019-03-25T10:09:36.546Z,20.48
2019-03-25T10:12:08.585Z,20.34
2019-03-25T10:14:40.294Z,20.44
2019-03-25T10:17:12.233Z,20.57
2019-03-25T10:19:44.238Z,20.69
2019-03-25T10:22:16.187Z,20.83
2019-03-25T10:24:48.085Z,20.84
2019-03-25T10:27:20.012Z,21.21
2019-03-25T10:29:51.841Z,21.15
2019-03-25T10:32:23.513Z,21.20
2019-03-25T10:34:55.413Z,21.22
2019-03-25T10:37:27.376Z,21.23
2019-03-25T10:39:59.002Z,21.31
2019-03-25T10:42:30.899Z,21.40
2019-03-25T10:45:02.747Z,21.62
2019-03-25T10:47:34.803Z,21.56
2019-03-25T10:50:08.521Z,21.43
2019-03-25T10:52:40.392Z,22.03
2019-03-25T10:55:12.737Z,21.95
2019-03-25T10:57:44.520Z,22.14
2019-03-25T11:00:17.116Z,22.16
2019-03-25T11:02:49.050Z,22.61
2019-03-25T11:05:20.957Z,22.77
2019-03-25T11:07:52.872Z,22.54
2019-03-25T11:10:24.834Z,22.35
2019-03-25T11:12:56.815Z,22.13
2019-03-25T11:15:28.742Z,22.15
2019-03-25T11:18:00.691Z,22.68
2019-03-25T11:20:32.666Z,22.27
2019-03-25T11:23:04.534Z,22.32
2019-03-25T11:25:36.530Z,22.54
2019-03-25T11:28:08.570Z,23.16
2019-03-25T11:30:55.404Z,23.51
2019-03-25T11:33:27.543Z,23.13
2019-03-25T11:35:59.882Z,23.26
2019-03-25T11:38:31.406Z,22.75
2019-03-25T11:41:03.352Z,22.95
2019-03-25T11:43:35.261Z,23.66
2019-03-25T11:46:07.318Z,23.87
2019-03-25T11:48:39.294Z,23.68
2019-03-25T11:51:11.217Z,24.67
2019-03-25T11:53:42.945Z,24.78
2019-03-25T11:56:14.905Z,24.78
2019-03-25T11:58:46.894Z,24.26
2019-03-25T12:01:18.836Z,24.23
2019-03-25T12:03:50.675Z,23.78
2019-03-25T12:06:22.662Z,24.17
2019-03-25T12:08:54.393Z,23.70
2019-03-25T12:11:26.339Z,23.37
2019-03-25T12:13:58.086Z,23.00
2019-03-25T12:16:31.490Z,22.57
2019-03-25T12:19:03.510Z,22.16
2019-03-25T12:21:35.307Z,22.41
2019-03-25T12:24:07.030Z,22.62
2019-03-25T12:26:38.858Z,22.71
2019-03-25T12:29:10.725Z,22.55
2019-03-25T12:31:42.483Z,22.64
2019-03-25T12:34:14.157Z,22.76
2019-03-25T12:36:45.924Z,22.67
2019-03-25T12:39:17.700Z,22.51
2019-03-25T12:41:49.375Z,22.35
2019-03-25T12:44:21.308Z,22.47
2019-03-25T12:46:53.271Z,22.70
2019-03-25T12:49:24.972Z,22.60
2019-03-25T12:51:56.569Z,22.89
2019-03-25T12:54:28.475Z,23.11
2019-03-25T12:57:00.124Z,23.01
2019-03-25T12:59:40.850Z,23.16
2019-03-25T13:02:05.835Z,23.12
2019-03-25T13:04:38.802Z,22.90
2019-03-25T13:07:10.487Z,22.68
2019-03-25T13:09:42.134Z,22.61
2019-03-25T13:12:14.108Z,22.49
2019-03-25T13:14:45.951Z,22.59
2019-03-25T13:17:17.872Z,22.64
2019-03-25T13:19:49.671Z,22.78
2019-03-25T13:22:21.630Z,22.74
2019-03-25T13:24:53.414Z,22.73
2019-03-25T13:27:25.980Z,22.63
2019-03-25T13:29:57.939Z,22.57
2019-03-25T13:32:29.736Z,22.49
2019-03-25T13:35:01.711Z,22.43
2019-03-25T13:37:33.582Z,22.48
2019-03-25T13:40:07.876Z,22.01
2019-03-25T13:42:39.873Z,22.13
2019-03-25T13:45:12.659Z,22.23
2019-03-25T13:47:44.502Z,22.16
2019-03-25T13:50:16.380Z,22.01
2019-03-25T13:52:48.216Z,22.03
2019-03-25T13:55:20.123Z,22.12
2019-03-25T13:57:51.979Z,22.44
2019-03-25T14:00:37.140Z,22.62
2019-03-25T14:03:09.195Z,22.60
2019-03-25T14:05:41.170Z,22.64
2019-03-25T14:08:13.045Z,22.71
2019-03-25T14:10:46.020Z,22.86
2019-03-25T14:13:17.857Z,22.93
2019-03-25T14:15:49.855Z,23.08
2019-03-25T14:18:21.678Z,23.05
2019-03-25T14:20:53.535Z,22.87
2019-03-25T14:23:25.364Z,22.97
2019-03-25T14:25:57.192Z,23.00
2019-03-25T14:28:29.222Z,22.86
2019-03-25T14:31:01.115Z,22.83
2019-03-25T14:33:33.147Z,22.61
2019-03-25T14:36:05.113Z,22.72
2019-03-25T14:38:36.803Z,22.60
2019-03-25T14:41:08.727Z,22.46
2019-03-25T14:43:40.527Z,22.44
2019-03-25T14:46:12.624Z,22.45
2019-03-25T14:48:44.664Z,22.43
2019-03-25T14:51:16.653Z,22.49
2019-03-25T14:53:48.557Z,22.40
2019-03-25T14:56:20.790Z,22.41
2019-03-25T14:58:52.815Z,22.47
2019-03-25T15:01:24.829Z,22.45
2019-03-25T15:03:56.816Z,22.22
2019-03-25T15:06:28.954Z,22.26
2019-03-25T15:09:00.821Z,22.16
2019-03-25T15:11:33.895Z,22.22
2019-03-25T15:14:05.869Z,22.19
2019-03-25T15:16:37.803Z,22.28
2019-03-25T15:19:09.801Z,22.34
2019-03-25T15:21:41.661Z,22.07
2019-03-25T15:24:13.763Z,22.18
2019-03-25T15:26:45.724Z,22.05
2019-03-25T15:29:17.612Z,22.21
2019-03-25T15:31:49.071Z,22.18
2019-03-25T15:34:20.811Z,22.22
2019-03-25T15:36:52.635Z,22.28
2019-03-25T15:39:24.670Z,22.25
2019-03-25T15:41:56.643Z,22.32
2019-03-25T15:44:28.593Z,22.22
2019-03-25T15:47:00.359Z,22.05
2019-03-25T15:49:32.442Z,22.09
2019-03-25T15:52:04.207Z,22.16
2019-03-25T15:54:35.980Z,22.06
2019-03-25T15:57:07.730Z,22.03
2019-03-25T15:59:39.556Z,22.07
2019-03-25T16:02:11.400Z,22.03
2019-03-25T16:04:43.163Z,21.97
2019-03-25T16:07:15.285Z,21.95
2019-03-25T16:09:47.644Z,21.86
2019-03-25T16:12:19.948Z,21.79
2019-03-25T16:14:51.721Z,21.75
2019-03-25T16:17:23.703Z,21.49
2019-03-25T16:19:55.679Z,21.47
2019-03-25T16:22:27.531Z,21.46
2019-03-25T16:24:59.389Z,21.28
2019-03-25T16:27:31.403Z,21.04
2019-03-25T16:30:03.402Z,21.00
2019-03-25T16:32:35.267Z,20.98
2019-03-25T16:35:07.247Z,20.95
2019-03-25T16:37:39.032Z,20.87
2019-03-25T16:40:10.909Z,20.79
2019-03-25T16:42:43.035Z,20.71
2019-03-25T16:45:14.901Z,20.59
2019-03-25T16:47:46.661Z,20.52
2019-03-25T16:50:18.538Z,20.43
2019-03-25T16:52:50.405Z,20.39
2019-03-25T16:55:22.217Z,20.36
2019-03-25T16:57:54.395Z,20.16
2019-03-25T17:00:27.593Z,20.14
2019-03-25T17:02:59.776Z,20.18
2019-03-25T17:05:31.871Z,20.10
2019-03-25T17:08:03.698Z,20.09
2019-03-25T17:10:35.541Z,20.00
2019-03-25T17:13:07.408Z,19.87
2019-03-25T17:15:39.323Z,19.89
2019-03-25T17:18:11.206Z,19.91
2019-03-25T17:20:43.179Z,19.95
2019-03-25T17:23:14.843Z,19.92
2019-03-25T17:25:52.968Z,19.94
2019-03-25T17:28:20.007Z,19.97
2019-03-25T17:30:51.881Z,19.90
2019-03-25T17:33:23.725Z,19.89
2019-03-25T17:35:55.293Z,19.62
2019-03-25T17:38:27.356Z,19.27
2019-03-25T17:40:59.227Z,19.05
2019-03-25T17:43:31.194Z,19.05
2019-03-25T17:46:03.040Z,19.03
2019-03-25T17:48:35.182Z,19.03
2019-03-25T17:51:07.211Z,19.03
2019-03-25T17:53:39.014Z,19.07
2019-03-25T17:56:10.895Z,18.95
2019-03-25T17:58:42.890Z,18.90
2019-03-25T18:01:17.539Z,18.91
2019-03-25T18:03:49.437Z,18.82
2019-03-25T18:06:21.245Z,18.84
2019-03-25T18:08:52.745Z,18.77
2019-03-25T18:11:24.464Z,18.61
2019-03-25T18:13:56.075Z,18.57
2019-03-25T18:16:30.885Z,18.55
2019-03-25T18:19:02.667Z,18.55
2019-03-25T18:21:34.573Z,18.31
2019-03-25T18:24:06.970Z,18.37
2019-03-25T18:26:38.709Z,18.35
2019-03-25T18:29:10.758Z,18.23
2019-03-25T18:31:43.689Z,18.24
2019-03-25T18:34:16.670Z,18.19
2019-03-25T18:36:48.627Z,18.13
2019-03-25T18:39:20.648Z,18.05
2019-03-25T18:41:52.228Z,18.00
2019-03-25T18:44:24.577Z,18.00
2019-03-25T18:46:56.758Z,18.01
2019-03-25T18:49:28.769Z,18.01
2019-03-25T18:52:00.774Z,18.04
2019-03-25T18:54:32.636Z,18.02
2019-03-25T18:57:04.434Z,18.08
2019-03-25T18:59:36.540Z,18.08
2019-03-25T19:02:08.377Z,18.06
2019-03-25T19:04:40.138Z,18.16
2019-03-25T19:07:11.730Z,18.24
2019-03-25T19:09:43.828Z,18.27
2019-03-25T19:12:15.651Z,18.30
2019-03-25T19:14:49.716Z,18.11
2019-03-25T19:17:21.563Z,18.12
2019-03-25T19:19:53.369Z,18.03
2019-03-25T19:22:25.440Z,17.88
2019-03-25T19:24:57.049Z,17.54
2019-03-25T19:27:28.858Z,17.30
2019-03-25T19:30:01.036Z,17.07
2019-03-25T19:32:32.984Z,16.84
2019-03-25T19:35:04.957Z,16.69
2019-03-25T19:37:36.824Z,16.74
2019-03-25T19:40:08.935Z,16.33
2019-03-25T19:42:40.818Z,16.08
2019-03-25T19:45:13.344Z,16.08
2019-03-25T19:47:45.491Z,15.84
2019-03-25T19:50:17.823Z,15.68
2019-03-25T19:52:49.556Z,15.65
2019-03-25T19:55:21.419Z,15.47
2019-03-25T19:57:53.399Z,15.40
2019-03-25T20:00:39.570Z,15.45
2019-03-25T20:03:11.501Z,15.49
2019-03-25T20:05:43.401Z,15.44
2019-03-25T20:08:15.034Z,15.47
2019-03-25T20:10:46.846Z,15.49
2019-03-25T20:13:18.845Z,15.50
2019-03-25T20:15:50.915Z,15.59
2019-03-25T20:18:22.661Z,15.62
2019-03-25T20:20:54.348Z,15.46
2019-03-25T20:23:26.040Z,15.46
2019-03-25T20:25:57.933Z,15.49
2019-03-25T20:28:29.642Z,15.44
2019-03-25T20:31:01.626Z,15.50
2019-03-25T20:33:33.346Z,15.54
2019-03-25T20:36:04.902Z,15.49
2019-03-25T20:38:36.873Z,15.42
2019-03-25T20:41:11.820Z,15.46
2019-03-25T20:43:43.639Z,15.38
2019-03-25T20:46:15.680Z,15.34
2019-03-25T20:48:48.585Z,15.45
2019-03-25T20:51:20.531Z,15.37
2019-03-25T20:53:52.209Z,15.25
2019-03-25T20:56:24.007Z,15.15
2019-03-25T20:58:55.699Z,15.21
2019-03-25T21:01:27.420Z,15.11
2019-03-25T21:03:59.337Z,15.05
2019-03-25T21:06:31.204Z,14.95
2019-03-25T21:09:03.198Z,14.98
2019-03-25T21:11:35.470Z,14.86
2019-03-25T21:14:07.288Z,14.77
2019-03-25T21:16:38.895Z,14.66
2019-03-25T21:19:10.727Z,14.75
2019-03-25T21:21:42.294Z,14.75
2019-03-25T21:24:14.020Z,14.70
2019-03-25T21:26:45.631Z,14.57
2019-03-25T21:29:17.148Z,14.67
2019-03-25T21:31:48.807Z,14.65
2019-03-25T21:34:20.302Z,14.65
2019-03-25T21:36:52.317Z,14.62
2019-03-25T21:39:24.133Z,14.70
2019-03-25T21:41:55.726Z,14.70
2019-03-25T21:44:27.522Z,14.67
2019-03-25T21:46:59.142Z,14.67
2019-03-25T21:49:31.881Z,14.74
2019-03-25T21:52:03.436Z,14.70
2019-03-25T21:54:35.067Z,14.68
2019-03-25T21:57:06.909Z,14.71
2019-03-25T21:59:39.861Z,14.74
2019-03-25T22:02:11.769Z,14.66
2019-03-25T22:04:43.684Z,14.64
2019-03-25T22:07:15.456Z,14.46
2019-03-25T22:09:47.220Z,14.45
2019-03-25T22:12:18.845Z,14.42
2019-03-25T22:14:50.699Z,14.31
2019-03-25T22:17:22.550Z,14.33
2019-03-25T22:19:54.334Z,14.40
2019-03-25T22:22:25.900Z,14.21
2019-03-25T22:24:57.618Z,13.85
2019-03-25T22:27:29.421Z,13.86
2019-03-25T22:30:01.278Z,13.65
2019-03-25T22:32:33.136Z,13.00
2019-03-25T22:35:06.137Z,12.88
2019-03-25T22:37:38.745Z,12.73
2019-03-25T22:40:11.051Z,12.71
2019-03-25T22:42:43.430Z,12.75
2019-03-25T22:45:17.311Z,12.78
2019-03-25T22:47:49.518Z,12.87
2019-03-25T22:50:29.846Z,12.88
2019-03-25T22:53:01.736Z,12.91
2019-03-25T22:55:33.572Z,12.82
2019-03-25T22:58:05.697Z,12.86
2019-03-25T23:00:47.712Z,12.79
2019-03-25T23:03:19.745Z,12.68
2019-03-25T23:05:51.456Z,12.69
2019-03-25T23:08:22.957Z,12.58
2019-03-25T23:10:54.777Z,12.58
2019-03-25T23:13:26.559Z,12.37
2019-03-25T23:15:58.582Z,12.38
2019-03-25T23:18:30.895Z,12.17
2019-03-25T23:21:02.908Z,12.10
2019-03-25T23:23:35.303Z,11.94
2019-03-25T23:26:07.137Z,11.85
2019-03-25T23:28:39.412Z,11.93
2019-03-25T23:31:11.542Z,11.81
2019-03-25T23:33:52.189Z,11.72
2019-03-25T23:36:17.746Z,11.60
2019-03-25T23:38:50.156Z,11.42
2019-03-25T23:41:22.253Z,11.46
2019-03-25T23:43:54.506Z,11.33
2019-03-25T23:46:26.796Z,11.35
2019-03-25T23:48:59.222Z,11.47
2019-03-25T23:51:31.146Z,11.40
2019-03-25T23:54:13.280Z,11.37
2019-03-25T23:56:45.630Z,11.36
2019-03-25T23:59:17.935Z,11.25
